createdAt,value
2022-08-19T00:01:31.232Z,20.04
2022-08-19T00:04:02.216Z,20.04
2022-08-19T00:06:29.682Z,19.99
2022-08-19T00:08:57.263Z,19.90
2022-08-19T00:11:25.575Z,19.84
2022-08-19T00:13:52.667Z,19.74
2022-08-19T00:16:19.020Z,19.76
2022-08-19T00:18:52.026Z,19.77
2022-08-19T00:21:18.516Z,19.78
2022-08-19T00:23:45.032Z,19.80
2022-08-19T00:26:11.810Z,19.83
2022-08-19T00:28:38.454Z,19.84
2022-08-19T00:31:06.065Z,19.86
2022-08-19T00:33:32.979Z,19.81
2022-08-19T00:36:00.875Z,19.82
2022-08-19T00:38:35.014Z,19.75
2022-08-19T00:41:03.985Z,19.84
2022-08-19T00:43:30.587Z,19.90
2022-08-19T00:45:56.893Z,19.95
2022-08-19T00:48:23.454Z,19.98
2022-08-19T00:50:52.316Z,19.98
2022-08-19T00:53:21.168Z,19.83
2022-08-19T00:55:48.745Z,19.68
2022-08-19T00:58:19.810Z,19.61
2022-08-19T01:00:46.969Z,19.56
2022-08-19T01:03:15.310Z,19.61
2022-08-19T01:05:43.091Z,19.61
2022-08-19T01:08:10.211Z,19.62
2022-08-19T01:10:39.028Z,19.50
2022-08-19T01:13:05.598Z,19.44
2022-08-19T01:15:34.537Z,19.30
2022-08-19T01:18:02.280Z,19.31
2022-08-19T01:20:28.739Z,19.36
2022-08-19T01:22:57.452Z,19.37
2022-08-19T01:25:27.699Z,19.38
2022-08-19T01:27:55.545Z,19.37
2022-08-19T01:30:34.317Z,19.39
2022-08-19T01:33:01.116Z,19.42
2022-08-19T01:35:28.912Z,19.42
2022-08-19T01:37:57.222Z,19.45
2022-08-19T01:40:25.481Z,19.44
2022-08-19T01:42:52.055Z,19.43
2022-08-19T01:45:19.495Z,19.41
2022-08-19T01:47:51.635Z,19.41
2022-08-19T01:50:29.028Z,19.38
2022-08-19T01:53:02.347Z,19.37
2022-08-19T01:55:32.945Z,19.40
2022-08-19T01:58:01.602Z,19.41
2022-08-19T02:00:30.833Z,19.43
2022-08-19T02:02:57.425Z,19.46
2022-08-19T02:05:23.858Z,19.44
2022-08-19T02:07:50.962Z,19.33
2022-08-19T02:10:21.888Z,19.30
2022-08-19T02:12:49.015Z,19.29
2022-08-19T02:15:16.691Z,19.30
2022-08-19T02:17:43.094Z,19.25
2022-08-19T02:20:10.071Z,19.21
2022-08-19T02:22:36.606Z,19.17
2022-08-19T02:25:03.739Z,19.12
2022-08-19T02:27:30.210Z,19.11
2022-08-19T02:29:56.753Z,19.11
2022-08-19T02:32:23.265Z,19.12
2022-08-19T02:34:49.704Z,19.13
2022-08-19T02:37:16.080Z,19.14
2022-08-19T02:39:42.489Z,19.13
2022-08-19T02:42:09.014Z,19.14
2022-08-19T02:44:35.704Z,19.12
2022-08-19T02:47:02.029Z,19.21
2022-08-19T02:49:28.438Z,19.11
2022-08-19T02:51:54.978Z,19.03
2022-08-19T02:54:21.720Z,19.01
2022-08-19T02:56:49.229Z,18.93
2022-08-19T02:59:15.884Z,18.90
2022-08-19T03:01:43.151Z,18.92
2022-08-19T03:04:10.925Z,18.86
2022-08-19T03:06:38.969Z,18.77
2022-08-19T03:09:05.550Z,18.75
2022-08-19T03:11:33.116Z,18.70
2022-08-19T03:14:00.314Z,18.70
2022-08-19T03:16:28.066Z,18.67
2022-08-19T03:18:55.282Z,18.65
2022-08-19T03:21:23.262Z,18.76
2022-08-19T03:23:49.774Z,18.75
2022-08-19T03:26:17.211Z,18.61
2022-08-19T03:28:51.309Z,18.58
2022-08-19T03:31:43.975Z,18.59
2022-08-19T03:34:16.942Z,18.56
2022-08-19T03:36:43.657Z,18.57
2022-08-19T03:39:10.491Z,18.59
2022-08-19T03:41:45.681Z,18.56
2022-08-19T03:44:17.846Z,18.56
2022-08-19T03:46:45.669Z,18.59
2022-08-19T03:49:13.968Z,18.54
2022-08-19T03:51:42.307Z,18.57
2022-08-19T03:54:10.793Z,18.56
2022-08-19T03:56:38.156Z,18.57
2022-08-19T03:59:05.612Z,18.58
2022-08-19T04:01:34.966Z,18.58
2022-08-19T04:04:02.336Z,18.53
2022-08-19T04:06:32.794Z,18.50
2022-08-19T04:09:00.156Z,18.51
2022-08-19T04:11:43.120Z,18.51
2022-08-19T04:14:12.105Z,18.53
2022-08-19T04:16:39.117Z,18.58
2022-08-19T04:19:07.365Z,18.61
2022-08-19T04:21:34.138Z,18.64
2022-08-19T04:24:00.956Z,18.62
2022-08-19T04:26:29.602Z,18.60
2022-08-19T04:28:56.148Z,18.59
2022-08-19T04:31:24.285Z,18.61
2022-08-19T04:33:51.087Z,18.63
2022-08-19T04:36:19.689Z,18.66
2022-08-19T04:38:51.573Z,18.72
2022-08-19T04:41:17.979Z,18.76
2022-08-19T04:43:45.840Z,18.81
2022-08-19T04:46:13.169Z,18.84
2022-08-19T04:49:00.368Z,18.95
2022-08-19T04:51:36.964Z,18.99
2022-08-19T04:54:04.048Z,19.01
2022-08-19T04:56:30.879Z,19.07
2022-08-19T04:58:57.495Z,19.09
2022-08-19T05:01:25.686Z,19.10
2022-08-19T05:03:52.278Z,19.12
2022-08-19T05:06:20.029Z,19.18
2022-08-19T05:08:46.935Z,19.13
2022-08-19T05:11:15.869Z,19.14
2022-08-19T05:13:43.445Z,19.15
2022-08-19T05:16:10.584Z,19.03
2022-08-19T05:18:37.273Z,18.96
2022-08-19T05:21:06.996Z,18.90
2022-08-19T05:23:33.527Z,18.91
2022-08-19T05:25:59.993Z,18.92
2022-08-19T05:28:26.311Z,18.91
2022-08-19T05:30:52.785Z,18.91
2022-08-19T05:33:19.524Z,18.96
2022-08-19T05:35:46.030Z,19.01
2022-08-19T05:38:12.770Z,18.95
2022-08-19T05:40:40.234Z,19.05
2022-08-19T05:43:08.101Z,19.08
2022-08-19T05:45:38.728Z,19.13
2022-08-19T05:48:05.263Z,19.16
2022-08-19T05:50:32.020Z,19.20
2022-08-19T05:52:58.635Z,19.23
2022-08-19T05:55:25.308Z,19.27
2022-08-19T05:57:51.937Z,19.23
2022-08-19T06:00:21.487Z,19.23
2022-08-19T06:02:53.120Z,19.21
2022-08-19T06:05:20.049Z,19.28
2022-08-19T06:07:46.398Z,19.41
2022-08-19T06:10:12.915Z,19.48
2022-08-19T06:12:39.509Z,19.54
2022-08-19T06:15:08.657Z,19.48
2022-08-19T06:17:35.222Z,19.47
2022-08-19T06:20:02.107Z,19.48
2022-08-19T06:22:29.056Z,19.53
2022-08-19T06:24:56.336Z,19.52
2022-08-19T06:27:22.842Z,19.51
2022-08-19T06:29:49.267Z,19.45
2022-08-19T06:32:17.099Z,19.35
2022-08-19T06:34:43.593Z,19.33
2022-08-19T06:37:10.094Z,19.27
2022-08-19T06:39:39.382Z,19.25
2022-08-19T06:42:06.907Z,19.23
2022-08-19T06:44:35.404Z,19.22
2022-08-19T06:47:14.919Z,19.22
2022-08-19T06:49:49.867Z,19.19
2022-08-19T06:52:16.736Z,19.23
2022-08-19T06:54:55.831Z,19.18
2022-08-19T06:57:23.390Z,19.23
2022-08-19T06:59:49.988Z,19.22
2022-08-19T07:04:48.251Z,19.23
2022-08-19T07:07:21.249Z,19.22
2022-08-19T07:09:58.211Z,19.22
2022-08-19T07:12:27.056Z,19.29
2022-08-19T07:14:53.672Z,19.27
2022-08-19T07:17:21.167Z,19.30
2022-08-19T07:19:48.226Z,19.33
2022-08-19T07:22:15.343Z,19.31
2022-08-19T07:24:51.133Z,19.32
2022-08-19T07:27:18.610Z,19.35
2022-08-19T07:29:56.014Z,19.45
2022-08-19T07:32:24.334Z,19.41
2022-08-19T07:34:51.976Z,19.40
2022-08-19T07:37:18.280Z,19.47
2022-08-19T07:39:44.820Z,19.48
2022-08-19T07:42:13.612Z,19.52
2022-08-19T07:47:48.872Z,19.51
2022-08-19T07:49:59.114Z,19.53
2022-08-19T07:52:25.726Z,19.52
2022-08-19T07:54:52.187Z,19.51
2022-08-19T07:57:18.827Z,19.45
2022-08-19T07:59:45.902Z,19.41
2022-08-19T08:02:12.299Z,19.46
2022-08-19T08:04:38.694Z,19.43
2022-08-19T08:07:06.232Z,19.45
2022-08-19T08:09:34.940Z,19.39
2022-08-19T08:15:02.430Z,19.38
2022-08-19T08:17:31.015Z,19.43
2022-08-19T08:20:15.687Z,19.43
2022-08-19T08:22:45.980Z,19.42
2022-08-19T08:25:17.254Z,19.33
2022-08-19T08:27:44.899Z,19.31
2022-08-19T08:30:14.797Z,19.37
2022-08-19T08:32:41.915Z,19.33
2022-08-19T08:35:11.337Z,19.41
2022-08-19T08:37:38.270Z,19.47
2022-08-19T08:40:15.506Z,19.57
2022-08-19T08:42:46.523Z,19.74
2022-08-19T08:45:14.459Z,19.85
2022-08-19T08:47:42.715Z,19.97
2022-08-19T08:50:13.204Z,20.02
2022-08-19T08:52:45.824Z,20.10
2022-08-19T08:55:14.830Z,20.10
2022-08-19T08:57:50.345Z,20.06
2022-08-19T09:00:21.625Z,19.99
2022-08-19T09:02:50.422Z,19.91
2022-08-19T09:05:18.052Z,19.89
2022-08-19T09:08:07.694Z,19.78
2022-08-19T09:11:00.699Z,19.79
2022-08-19T09:13:50.497Z,19.73
2022-08-19T09:16:19.419Z,19.74
2022-08-19T09:18:55.362Z,19.73
2022-08-19T09:21:25.734Z,19.73
2022-08-19T09:23:56.889Z,19.68
2022-08-19T09:26:24.565Z,19.70
2022-08-19T09:29:11.412Z,19.70
2022-08-19T09:31:37.866Z,19.71
2022-08-19T09:34:04.391Z,19.73
2022-08-19T09:36:35.263Z,19.74
2022-08-19T09:39:01.983Z,19.58
2022-08-19T09:41:29.056Z,19.51
2022-08-19T09:43:56.920Z,19.56
2022-08-19T09:46:24.652Z,19.49
2022-08-19T09:48:52.050Z,19.44
2022-08-19T09:51:20.169Z,19.37
2022-08-19T09:53:48.522Z,19.33
2022-08-19T09:56:20.469Z,19.29
2022-08-19T09:58:47.070Z,19.29
2022-08-19T10:01:18.178Z,19.29
2022-08-19T10:03:44.709Z,19.29
2022-08-19T10:06:15.177Z,19.33
2022-08-19T10:08:50.200Z,19.31
2022-08-19T10:11:27.211Z,19.34
2022-08-19T10:13:55.380Z,19.33
2022-08-19T10:16:22.668Z,19.35
2022-08-19T10:18:52.947Z,19.42
2022-08-19T10:21:27.319Z,19.48
2022-08-19T10:23:55.771Z,19.43
2022-08-19T10:26:24.420Z,19.50
2022-08-19T10:28:53.039Z,19.43
2022-08-19T10:31:22.704Z,19.36
2022-08-19T10:34:10.102Z,19.37
2022-08-19T10:36:38.656Z,19.58
2022-08-19T10:39:23.576Z,19.71
2022-08-19T10:41:49.916Z,19.72
2022-08-19T10:44:16.223Z,19.64
2022-08-19T10:46:48.303Z,19.55
2022-08-19T10:49:15.208Z,19.54
2022-08-19T10:51:47.964Z,19.57
2022-08-19T10:54:15.459Z,19.63
2022-08-19T10:56:41.973Z,19.57
2022-08-19T10:59:08.509Z,19.39
2022-08-19T11:01:35.415Z,19.39
2022-08-19T11:04:03.197Z,19.36
2022-08-19T11:06:30.000Z,19.29
2022-08-19T11:08:56.639Z,19.43
2022-08-19T11:11:23.594Z,19.58
2022-08-19T11:13:50.677Z,19.56
2022-08-19T11:16:18.944Z,19.36
2022-08-19T11:18:46.782Z,19.36
2022-08-19T11:21:16.066Z,19.46
2022-08-19T11:23:42.563Z,19.28
2022-08-19T11:26:08.868Z,19.15
2022-08-19T11:28:35.236Z,19.32
2022-08-19T11:31:01.647Z,19.37
2022-08-19T11:33:28.278Z,19.45
2022-08-19T11:35:55.061Z,19.57
2022-08-19T11:38:21.690Z,19.60
2022-08-19T11:40:54.870Z,19.65
2022-08-19T11:43:21.231Z,19.62
2022-08-19T11:45:47.713Z,19.63
2022-08-19T11:48:14.931Z,19.68
2022-08-19T11:50:41.205Z,19.61
2022-08-19T11:53:07.696Z,19.63
2022-08-19T11:55:38.578Z,19.65
2022-08-19T11:58:18.596Z,19.63
2022-08-19T12:00:46.427Z,19.64
2022-08-19T12:03:13.566Z,19.50
2022-08-19T12:05:40.666Z,19.43
2022-08-19T12:08:07.771Z,19.53
2022-08-19T12:10:34.642Z,19.51
2022-08-19T12:13:01.085Z,19.39
2022-08-19T12:15:28.221Z,19.35
2022-08-19T12:18:00.077Z,19.31
2022-08-19T12:20:26.435Z,19.19
2022-08-19T12:22:52.938Z,19.18
2022-08-19T12:25:19.551Z,19.02
2022-08-19T12:27:56.806Z,19.10
2022-08-19T12:30:23.806Z,18.97
2022-08-19T12:32:50.232Z,19.07
2022-08-19T12:35:16.904Z,19.10
2022-08-19T12:37:43.292Z,18.90
2022-08-19T15:40:14.287Z,19.38
2022-08-19T15:42:40.930Z,19.33
2022-08-19T15:45:07.955Z,19.33
2022-08-19T15:47:35.434Z,19.47
2022-08-19T15:50:06.310Z,19.53
2022-08-19T15:52:37.130Z,19.32
2022-08-19T15:55:09.213Z,19.39
2022-08-19T15:57:42.562Z,19.36
2022-08-19T16:00:09.354Z,19.34
2022-08-19T16:02:37.866Z,19.44
2022-08-19T16:05:07.665Z,19.44
2022-08-19T16:07:34.042Z,19.33
2022-08-19T16:10:26.436Z,19.25
2022-08-19T16:12:47.025Z,19.15
2022-08-19T16:15:13.698Z,19.09
2022-08-19T16:17:40.150Z,19.23
2022-08-19T16:20:07.670Z,19.24
2022-08-19T16:22:34.268Z,19.22
2022-08-19T16:25:00.810Z,19.12
2022-08-19T16:27:27.132Z,19.11
2022-08-19T16:29:53.556Z,19.14
2022-08-19T16:32:19.932Z,19.25
2022-08-19T16:34:46.921Z,19.20
2022-08-19T16:37:13.746Z,19.25
2022-08-19T16:39:40.947Z,19.22
2022-08-19T16:42:10.542Z,19.13
2022-08-19T16:44:40.066Z,19.21
2022-08-19T16:47:06.517Z,19.24
2022-08-19T16:49:54.289Z,19.28
2022-08-19T16:52:20.031Z,19.22
2022-08-19T16:54:47.073Z,19.27
2022-08-19T16:57:13.611Z,19.31
2022-08-19T16:59:44.163Z,19.34
2022-08-19T17:02:15.502Z,19.34
2022-08-19T17:04:42.080Z,19.25
2022-08-19T17:07:09.522Z,19.35
2022-08-19T17:09:36.365Z,19.31
2022-08-19T17:12:04.670Z,19.19
2022-08-19T17:14:31.297Z,19.18
2022-08-19T17:16:57.581Z,19.11
2022-08-19T17:19:23.926Z,19.10
2022-08-19T17:21:50.320Z,19.17
2022-08-19T17:24:16.645Z,19.23
2022-08-19T17:26:43.409Z,19.09
2022-08-19T17:29:09.856Z,19.03
2022-08-19T17:31:36.431Z,19.01
2022-08-19T17:34:03.634Z,18.98
2022-08-19T17:36:30.974Z,18.97
2022-08-19T17:38:59.021Z,19.00
2022-08-19T17:41:26.603Z,18.95
2022-08-19T17:43:53.046Z,18.92
2022-08-19T17:46:19.652Z,19.00
2022-08-19T17:48:51.211Z,19.01
2022-08-19T17:51:21.991Z,18.99
2022-08-19T17:53:49.478Z,18.97
2022-08-19T17:56:16.216Z,18.99
2022-08-19T17:58:42.886Z,19.00
2022-08-19T18:01:13.890Z,19.03
2022-08-19T18:03:41.254Z,19.09
2022-08-19T18:06:08.333Z,19.10
2022-08-19T18:08:34.945Z,19.06
2022-08-19T18:11:01.575Z,19.02
2022-08-19T18:13:27.913Z,18.99
2022-08-19T18:15:54.172Z,18.96
2022-08-19T18:18:20.693Z,18.98
2022-08-19T18:20:46.996Z,18.96
2022-08-19T18:23:43.827Z,18.97
2022-08-19T18:26:00.167Z,18.93
2022-08-19T18:28:26.597Z,18.90
2022-08-19T18:30:53.023Z,18.87
2022-08-19T18:33:19.743Z,18.84
2022-08-19T18:35:48.403Z,18.79
2022-08-19T18:38:15.887Z,18.77
2022-08-19T18:40:42.287Z,18.76
2022-08-19T18:43:09.040Z,18.74
2022-08-19T18:45:35.575Z,18.69
2022-08-19T18:48:01.928Z,18.62
2022-08-19T18:50:28.601Z,18.45
2022-08-19T18:52:55.099Z,18.33
2022-08-19T18:55:22.325Z,18.29
2022-08-19T18:57:48.760Z,18.23
2022-08-19T19:00:18.324Z,18.25
2022-08-19T19:02:44.726Z,18.25
2022-08-19T19:05:12.847Z,18.21
2022-08-19T19:07:39.680Z,18.18
2022-08-19T19:10:06.927Z,18.12
2022-08-19T19:12:37.259Z,18.10
2022-08-19T19:15:03.980Z,18.04
2022-08-19T19:17:30.259Z,18.05
2022-08-19T19:19:56.819Z,18.05
2022-08-19T19:22:23.723Z,18.11
2022-08-19T19:24:50.953Z,18.19
2022-08-19T19:27:18.247Z,18.24
2022-08-19T19:29:46.456Z,18.28
2022-08-19T19:32:24.398Z,18.32
2022-08-19T19:34:51.261Z,18.33
2022-08-19T19:37:17.591Z,18.31
2022-08-19T19:39:46.679Z,18.25
2022-08-19T19:42:19.815Z,18.21
2022-08-19T19:44:47.411Z,18.15
2022-08-19T19:47:14.281Z,18.15
2022-08-19T19:49:57.994Z,18.11
2022-08-19T19:52:27.250Z,18.08
2022-08-19T19:54:53.588Z,18.10
2022-08-19T19:57:20.089Z,18.05
2022-08-19T19:59:51.427Z,18.06
2022-08-19T20:02:18.159Z,18.02
2022-08-19T20:04:44.475Z,18.03
2022-08-19T20:07:10.807Z,18.01
2022-08-19T20:09:58.395Z,17.99
2022-08-19T20:12:23.560Z,17.98
2022-08-19T20:14:50.099Z,17.98
2022-08-19T20:17:16.414Z,17.99
2022-08-19T20:19:42.896Z,17.95
2022-08-19T20:22:09.412Z,17.92
2022-08-19T20:24:37.352Z,17.91
2022-08-19T20:27:07.128Z,17.92
2022-08-19T20:29:39.032Z,17.97
2022-08-19T20:32:07.541Z,17.96
2022-08-19T20:34:34.002Z,17.97
2022-08-19T20:37:00.667Z,18.03
2022-08-19T20:39:27.021Z,18.02
2022-08-19T20:41:53.351Z,18.05
2022-08-19T20:44:19.908Z,18.06
2022-08-19T20:46:55.340Z,18.07
2022-08-19T20:49:26.962Z,18.06
2022-08-19T20:51:54.081Z,18.08
2022-08-19T20:54:20.438Z,18.08
2022-08-19T20:56:46.746Z,18.04
2022-08-19T20:59:13.022Z,18.07
2022-08-19T21:01:40.151Z,18.08
2022-08-19T21:04:06.498Z,18.05
2022-08-19T21:06:32.944Z,18.06
2022-08-19T21:08:59.378Z,18.08
2022-08-19T21:11:25.775Z,18.04
2022-08-19T21:13:52.071Z,18.05
2022-08-19T21:16:18.519Z,18.03
2022-08-19T21:18:44.898Z,18.00
2022-08-19T21:21:11.314Z,17.96
2022-08-19T21:23:37.653Z,17.98
2022-08-19T21:26:04.213Z,18.10
2022-08-19T21:28:36.053Z,18.13
2022-08-19T21:31:04.086Z,18.16
2022-08-19T21:33:31.757Z,18.22
2022-08-19T21:35:59.117Z,18.22
2022-08-19T21:38:25.930Z,18.23
2022-08-19T21:40:52.562Z,18.16
2022-08-19T21:43:18.957Z,18.14
2022-08-19T21:45:45.972Z,18.13
2022-08-19T21:48:12.643Z,18.09
2022-08-19T21:50:39.162Z,18.11
2022-08-19T21:53:05.612Z,18.11
2022-08-19T21:55:32.127Z,18.11
2022-08-19T21:57:58.637Z,18.11
2022-08-19T22:00:25.430Z,18.11
2022-08-19T22:02:52.128Z,18.13
2022-08-19T22:05:19.767Z,18.13
2022-08-19T22:07:46.255Z,18.12
2022-08-19T22:10:13.720Z,18.13
2022-08-19T22:12:40.293Z,18.14
2022-08-19T22:15:18.430Z,18.12
2022-08-19T22:17:45.083Z,18.14
2022-08-19T22:20:12.918Z,18.14
2022-08-19T22:22:44.727Z,18.21
2022-08-19T22:25:31.879Z,18.28
2022-08-19T22:28:00.383Z,18.24
2022-08-19T22:30:27.273Z,18.26
2022-08-19T22:33:00.717Z,18.28
2022-08-19T22:35:28.305Z,18.28
2022-08-19T22:37:54.908Z,18.21
2022-08-19T22:40:21.408Z,18.25
2022-08-19T22:42:47.747Z,18.20
2022-08-19T22:45:16.694Z,18.18
2022-08-19T22:47:43.072Z,18.18
2022-08-19T22:50:13.985Z,18.13
2022-08-19T22:52:40.679Z,18.16
2022-08-19T22:55:18.569Z,18.19
2022-08-19T22:57:44.879Z,18.19
2022-08-19T23:00:11.719Z,18.24
2022-08-19T23:02:38.407Z,18.25
2022-08-19T23:05:06.114Z,18.24
2022-08-19T23:07:32.834Z,18.24
2022-08-19T23:09:59.195Z,18.24
2022-08-19T23:12:30.050Z,18.23
2022-08-19T23:15:00.445Z,18.16
2022-08-19T23:17:26.975Z,18.13
2022-08-19T23:19:53.270Z,18.12
2022-08-19T23:22:19.613Z,18.13
2022-08-19T23:24:51.755Z,18.11
2022-08-19T23:27:22.705Z,18.11
2022-08-19T23:29:50.240Z,18.07
2022-08-19T23:32:17.650Z,18.02
2022-08-19T23:34:44.154Z,18.02
2022-08-19T23:37:10.453Z,18.02
2022-08-19T23:39:36.911Z,18.04
2022-08-19T23:42:04.258Z,18.04
2022-08-19T23:44:31.882Z,18.02
2022-08-19T23:47:00.125Z,17.98
2022-08-19T23:49:32.743Z,17.98
2022-08-19T23:51:59.515Z,17.97
2022-08-19T23:54:42.747Z,17.96
2022-08-19T23:57:13.738Z,17.98
2022-08-19T23:59:41.188Z,17.89
